sensor_id;sensor_type;location;lat;lon;timestamp;P1;durP1;ratioP1;P2;durP2;ratioP2
11422;SDS011;5768;51.476;7.210;2023-02-15T00:00:41;15.83;;;13.53;;
11422;SDS011;5768;51.476;7.210;2023-02-15T00:05:45;17.27;;;14.17;;
11422;SDS011;5768;51.476;7.210;2023-02-15T00:10:47;15.93;;;13.13;;
11422;SDS011;5768;51.476;7.210;2023-02-15T00:15:49;16.90;;;14.03;;
11422;SDS011;5768;51.476;7.210;2023-02-15T00:20:52;18.07;;;14.43;;
11422;SDS011;5768;51.476;7.210;2023-02-15T00:26:02;17.93;;;14.57;;
11422;SDS011;5768;51.476;7.210;2023-02-15T00:31:07;16.67;;;13.50;;
11422;SDS011;5768;51.476;7.210;2023-02-15T00:36:13;16.23;;;14.07;;
11422;SDS011;5768;51.476;7.210;2023-02-15T00:41:15;17.57;;;14.77;;
11422;SDS011;5768;51.476;7.210;2023-02-15T00:46:17;17.50;;;14.67;;
11422;SDS011;5768;51.476;7.210;2023-02-15T00:51:21;16.20;;;14.30;;
11422;SDS011;5768;51.476;7.210;2023-02-15T00:56:23;16.90;;;14.27;;
11422;SDS011;5768;51.476;7.210;2023-02-15T01:01:25;18.30;;;14.47;;
11422;SDS011;5768;51.476;7.210;2023-02-15T01:06:29;19.10;;;15.27;;
11422;SDS011;5768;51.476;7.210;2023-02-15T01:11:31;19.10;;;15.47;;
11422;SDS011;5768;51.476;7.210;2023-02-15T01:16:33;21.07;;;17.03;;
11422;SDS011;5768;51.476;7.210;2023-02-15T01:21:37;19.47;;;16.07;;
11422;SDS011;5768;51.476;7.210;2023-02-15T01:26:40;19.80;;;15.80;;
11422;SDS011;5768;51.476;7.210;2023-02-15T01:31:42;18.93;;;15.97;;
11422;SDS011;5768;51.476;7.210;2023-02-15T01:36:46;18.60;;;15.00;;
11422;SDS011;5768;51.476;7.210;2023-02-15T01:41:48;19.60;;;15.43;;
11422;SDS011;5768;51.476;7.210;2023-02-15T01:46:51;20.73;;;15.70;;
11422;SDS011;5768;51.476;7.210;2023-02-15T01:51:56;20.47;;;15.97;;
11422;SDS011;5768;51.476;7.210;2023-02-15T01:56:59;19.40;;;15.73;;
11422;SDS011;5768;51.476;7.210;2023-02-15T02:02:06;21.67;;;16.47;;
11422;SDS011;5768;51.476;7.210;2023-02-15T02:07:14;21.27;;;16.40;;
11422;SDS011;5768;51.476;7.210;2023-02-15T02:12:21;20.70;;;16.40;;
11422;SDS011;5768;51.476;7.210;2023-02-15T02:17:27;21.30;;;16.57;;
11422;SDS011;5768;51.476;7.210;2023-02-15T02:28:52;22.03;;;15.87;;
11422;SDS011;5768;51.476;7.210;2023-02-15T02:34:45;19.57;;;16.43;;
11422;SDS011;5768;51.476;7.210;2023-02-15T02:39:55;22.37;;;16.97;;
11422;SDS011;5768;51.476;7.210;2023-02-15T02:45:15;23.10;;;17.53;;
11422;SDS011;5768;51.476;7.210;2023-02-15T02:50:25;23.60;;;17.80;;
11422;SDS011;5768;51.476;7.210;2023-02-15T02:55:31;23.73;;;17.53;;
11422;SDS011;5768;51.476;7.210;2023-02-15T03:00:48;21.67;;;16.80;;
11422;SDS011;5768;51.476;7.210;2023-02-15T03:05:56;21.63;;;17.57;;
11422;SDS011;5768;51.476;7.210;2023-02-15T03:11:04;21.80;;;17.83;;
11422;SDS011;5768;51.476;7.210;2023-02-15T03:16:07;23.97;;;18.33;;
11422;SDS011;5768;51.476;7.210;2023-02-15T03:21:32;23.13;;;17.67;;
11422;SDS011;5768;51.476;7.210;2023-02-15T03:26:39;22.17;;;17.37;;
11422;SDS011;5768;51.476;7.210;2023-02-15T03:31:49;22.33;;;17.77;;
11422;SDS011;5768;51.476;7.210;2023-02-15T03:37:00;23.70;;;18.47;;
11422;SDS011;5768;51.476;7.210;2023-02-15T03:42:13;20.37;;;16.87;;
11422;SDS011;5768;51.476;7.210;2023-02-15T03:47:19;23.43;;;18.33;;
11422;SDS011;5768;51.476;7.210;2023-02-15T03:52:28;22.97;;;17.83;;
11422;SDS011;5768;51.476;7.210;2023-02-15T03:57:34;22.57;;;17.87;;
11422;SDS011;5768;51.476;7.210;2023-02-15T04:03:03;21.63;;;17.20;;
11422;SDS011;5768;51.476;7.210;2023-02-15T04:08:19;22.17;;;17.60;;
11422;SDS011;5768;51.476;7.210;2023-02-15T04:13:41;24.43;;;19.17;;
11422;SDS011;5768;51.476;7.210;2023-02-15T04:18:44;23.93;;;18.67;;
11422;SDS011;5768;51.476;7.210;2023-02-15T04:24:05;21.20;;;16.93;;
11422;SDS011;5768;51.476;7.210;2023-02-15T04:29:26;24.63;;;18.23;;
11422;SDS011;5768;51.476;7.210;2023-02-15T04:34:29;24.67;;;18.93;;
11422;SDS011;5768;51.476;7.210;2023-02-15T04:39:33;23.73;;;18.63;;
11422;SDS011;5768;51.476;7.210;2023-02-15T04:44:35;24.77;;;18.23;;
11422;SDS011;5768;51.476;7.210;2023-02-15T04:49:37;22.50;;;18.23;;
11422;SDS011;5768;51.476;7.210;2023-02-15T04:54:41;22.20;;;17.40;;
11422;SDS011;5768;51.476;7.210;2023-02-15T04:59:43;23.43;;;17.37;;
11422;SDS011;5768;51.476;7.210;2023-02-15T05:04:45;24.43;;;17.70;;
11422;SDS011;5768;51.476;7.210;2023-02-15T05:09:49;22.47;;;18.27;;
11422;SDS011;5768;51.476;7.210;2023-02-15T05:14:51;25.00;;;18.57;;
11422;SDS011;5768;51.476;7.210;2023-02-15T05:19:53;24.33;;;18.77;;
11422;SDS011;5768;51.476;7.210;2023-02-15T05:24:57;23.80;;;18.80;;
11422;SDS011;5768;51.476;7.210;2023-02-15T05:30:17;23.73;;;18.47;;
11422;SDS011;5768;51.476;7.210;2023-02-15T05:35:19;24.37;;;19.00;;
11422;SDS011;5768;51.476;7.210;2023-02-15T05:40:23;24.83;;;20.03;;
11422;SDS011;5768;51.476;7.210;2023-02-15T05:45:25;26.43;;;19.80;;
11422;SDS011;5768;51.476;7.210;2023-02-15T05:50:27;24.13;;;19.17;;
11422;SDS011;5768;51.476;7.210;2023-02-15T05:55:31;26.27;;;19.37;;
11422;SDS011;5768;51.476;7.210;2023-02-15T06:00:33;25.40;;;19.73;;
11422;SDS011;5768;51.476;7.210;2023-02-15T06:05:35;28.50;;;19.83;;
11422;SDS011;5768;51.476;7.210;2023-02-15T06:10:39;23.00;;;18.80;;
11422;SDS011;5768;51.476;7.210;2023-02-15T06:15:41;24.10;;;19.67;;
11422;SDS011;5768;51.476;7.210;2023-02-15T06:20:45;27.27;;;20.60;;
11422;SDS011;5768;51.476;7.210;2023-02-15T06:25:48;27.20;;;19.87;;
11422;SDS011;5768;51.476;7.210;2023-02-15T06:30:51;28.87;;;20.33;;
11422;SDS011;5768;51.476;7.210;2023-02-15T06:35:53;29.47;;;21.30;;
11422;SDS011;5768;51.476;7.210;2023-02-15T06:40:57;29.50;;;21.47;;
11422;SDS011;5768;51.476;7.210;2023-02-15T06:45:59;29.13;;;19.47;;
11422;SDS011;5768;51.476;7.210;2023-02-15T06:51:02;30.00;;;21.30;;
11422;SDS011;5768;51.476;7.210;2023-02-15T06:56:06;30.27;;;20.23;;
11422;SDS011;5768;51.476;7.210;2023-02-15T07:01:10;28.57;;;20.63;;
11422;SDS011;5768;51.476;7.210;2023-02-15T07:06:13;29.10;;;20.27;;
11422;SDS011;5768;51.476;7.210;2023-02-15T07:11:16;27.90;;;20.57;;
11422;SDS011;5768;51.476;7.210;2023-02-15T07:16:36;28.47;;;20.27;;
11422;SDS011;5768;51.476;7.210;2023-02-15T07:21:39;25.80;;;19.97;;
11422;SDS011;5768;51.476;7.210;2023-02-15T07:26:42;27.60;;;20.77;;
11422;SDS011;5768;51.476;7.210;2023-02-15T07:31:45;25.70;;;19.67;;
11422;SDS011;5768;51.476;7.210;2023-02-15T07:36:47;26.87;;;19.43;;
11422;SDS011;5768;51.476;7.210;2023-02-15T07:41:53;26.13;;;19.47;;
11422;SDS011;5768;51.476;7.210;2023-02-15T07:46:55;27.70;;;19.00;;
11422;SDS011;5768;51.476;7.210;2023-02-15T07:51:57;26.90;;;19.53;;
11422;SDS011;5768;51.476;7.210;2023-02-15T07:57:03;25.00;;;18.77;;
11422;SDS011;5768;51.476;7.210;2023-02-15T08:02:05;26.23;;;19.43;;
11422;SDS011;5768;51.476;7.210;2023-02-15T08:07:11;29.33;;;20.00;;
11422;SDS011;5768;51.476;7.210;2023-02-15T08:12:14;28.23;;;19.57;;
11422;SDS011;5768;51.476;7.210;2023-02-15T08:17:19;25.80;;;19.17;;
11422;SDS011;5768;51.476;7.210;2023-02-15T08:22:22;23.63;;;18.93;;
11422;SDS011;5768;51.476;7.210;2023-02-15T08:27:26;27.70;;;19.30;;
11422;SDS011;5768;51.476;7.210;2023-02-15T08:32:28;26.07;;;19.60;;
11422;SDS011;5768;51.476;7.210;2023-02-15T08:37:30;22.50;;;18.20;;
11422;SDS011;5768;51.476;7.210;2023-02-15T08:42:33;23.67;;;17.70;;
11422;SDS011;5768;51.476;7.210;2023-02-15T08:47:35;21.80;;;17.47;;
11422;SDS011;5768;51.476;7.210;2023-02-15T08:52:37;21.10;;;17.13;;
11422;SDS011;5768;51.476;7.210;2023-02-15T08:57:41;20.53;;;17.03;;
11422;SDS011;5768;51.476;7.210;2023-02-15T09:02:45;22.03;;;16.47;;
11422;SDS011;5768;51.476;7.210;2023-02-15T09:07:47;18.13;;;15.57;;
11422;SDS011;5768;51.476;7.210;2023-02-15T09:12:51;20.07;;;15.33;;
11422;SDS011;5768;51.476;7.210;2023-02-15T09:17:53;21.43;;;14.47;;
11422;SDS011;5768;51.476;7.210;2023-02-15T09:22:55;19.07;;;13.40;;
11422;SDS011;5768;51.476;7.210;2023-02-15T09:27:58;16.83;;;13.83;;
11422;SDS011;5768;51.476;7.210;2023-02-15T09:33:00;17.37;;;12.73;;
11422;SDS011;5768;51.476;7.210;2023-02-15T09:38:03;20.03;;;13.10;;
11422;SDS011;5768;51.476;7.210;2023-02-15T09:43:10;17.03;;;13.07;;
11422;SDS011;5768;51.476;7.210;2023-02-15T09:48:36;15.57;;;11.70;;
11422;SDS011;5768;51.476;7.210;2023-02-15T09:53:52;15.23;;;11.47;;
11422;SDS011;5768;51.476;7.210;2023-02-15T09:59:14;17.07;;;12.83;;
11422;SDS011;5768;51.476;7.210;2023-02-15T10:04:37;16.10;;;12.73;;
11422;SDS011;5768;51.476;7.210;2023-02-15T10:10:02;16.13;;;12.27;;
11422;SDS011;5768;51.476;7.210;2023-02-15T10:15:25;16.03;;;12.13;;
11422;SDS011;5768;51.476;7.210;2023-02-15T10:20:49;16.20;;;11.30;;
11422;SDS011;5768;51.476;7.210;2023-02-15T10:26:00;17.57;;;11.80;;
11422;SDS011;5768;51.476;7.210;2023-02-15T10:31:23;13.30;;;10.87;;
11422;SDS011;5768;51.476;7.210;2023-02-15T10:36:31;17.60;;;11.43;;
11422;SDS011;5768;51.476;7.210;2023-02-15T10:42:01;14.03;;;11.13;;
11422;SDS011;5768;51.476;7.210;2023-02-15T10:47:19;13.07;;;10.40;;
11422;SDS011;5768;51.476;7.210;2023-02-15T10:52:39;15.33;;;11.40;;
11422;SDS011;5768;51.476;7.210;2023-02-15T10:58:03;15.23;;;10.43;;
11422;SDS011;5768;51.476;7.210;2023-02-15T11:03:27;14.20;;;10.03;;
11422;SDS011;5768;51.476;7.210;2023-02-15T11:08:44;14.00;;;10.73;;
11422;SDS011;5768;51.476;7.210;2023-02-15T11:13:52;14.32;;;9.60;;
11422;SDS011;5768;51.476;7.210;2023-02-15T11:19:03;11.40;;;9.33;;
11422;SDS011;5768;51.476;7.210;2023-02-15T11:24:19;12.77;;;9.60;;
11422;SDS011;5768;51.476;7.210;2023-02-15T11:29:23;13.18;;;8.65;;
11422;SDS011;5768;51.476;7.210;2023-02-15T11:34:35;12.90;;;9.18;;
11422;SDS011;5768;51.476;7.210;2023-02-15T11:39:46;14.25;;;8.45;;
11422;SDS011;5768;51.476;7.210;2023-02-15T11:44:54;10.95;;;8.50;;
11422;SDS011;5768;51.476;7.210;2023-02-15T11:50:05;11.00;;;7.47;;
11422;SDS011;5768;51.476;7.210;2023-02-15T11:55:14;11.18;;;7.97;;
11422;SDS011;5768;51.476;7.210;2023-02-15T12:00:25;10.15;;;6.53;;
11422;SDS011;5768;51.476;7.210;2023-02-15T12:05:37;10.68;;;7.60;;
11422;SDS011;5768;51.476;7.210;2023-02-15T12:10:51;12.65;;;8.23;;
11422;SDS011;5768;51.476;7.210;2023-02-15T12:16:04;11.50;;;8.07;;
11422;SDS011;5768;51.476;7.210;2023-02-15T12:21:15;11.95;;;7.50;;
11422;SDS011;5768;51.476;7.210;2023-02-15T12:26:29;11.40;;;7.28;;
11422;SDS011;5768;51.476;7.210;2023-02-15T12:31:37;11.25;;;7.28;;
11422;SDS011;5768;51.476;7.210;2023-02-15T12:36:44;11.43;;;8.15;;
11422;SDS011;5768;51.476;7.210;2023-02-15T12:41:59;12.25;;;8.10;;
11422;SDS011;5768;51.476;7.210;2023-02-15T12:47:05;13.10;;;7.63;;
11422;SDS011;5768;51.476;7.210;2023-02-15T12:52:24;11.50;;;8.13;;
11422;SDS011;5768;51.476;7.210;2023-02-15T12:57:28;10.13;;;8.00;;
11422;SDS011;5768;51.476;7.210;2023-02-15T13:02:34;11.05;;;8.32;;
11422;SDS011;5768;51.476;7.210;2023-02-15T13:07:47;10.13;;;7.63;;
11422;SDS011;5768;51.476;7.210;2023-02-15T13:12:53;13.18;;;9.38;;
11422;SDS011;5768;51.476;7.210;2023-02-15T13:17:57;10.75;;;8.10;;
11422;SDS011;5768;51.476;7.210;2023-02-15T13:23:05;12.98;;;8.85;;
11422;SDS011;5768;51.476;7.210;2023-02-15T13:28:32;12.90;;;8.10;;
11422;SDS011;5768;51.476;7.210;2023-02-15T13:33:46;12.50;;;8.50;;
11422;SDS011;5768;51.476;7.210;2023-02-15T13:38:57;13.45;;;8.57;;
11422;SDS011;5768;51.476;7.210;2023-02-15T13:44:22;13.23;;;8.90;;
11422;SDS011;5768;51.476;7.210;2023-02-15T13:49:49;14.25;;;9.23;;
11422;SDS011;5768;51.476;7.210;2023-02-15T14:00:43;12.43;;;9.40;;
11422;SDS011;5768;51.476;7.210;2023-02-15T14:05:56;13.73;;;10.07;;
11422;SDS011;5768;51.476;7.210;2023-02-15T14:11:17;13.43;;;9.52;;
11422;SDS011;5768;51.476;7.210;2023-02-15T14:16:33;13.18;;;9.40;;
11422;SDS011;5768;51.476;7.210;2023-02-15T14:21:47;12.90;;;9.27;;
11422;SDS011;5768;51.476;7.210;2023-02-15T14:27:02;13.85;;;9.23;;
11422;SDS011;5768;51.476;7.210;2023-02-15T14:32:20;13.23;;;9.30;;
11422;SDS011;5768;51.476;7.210;2023-02-15T14:37:38;13.25;;;9.73;;
11422;SDS011;5768;51.476;7.210;2023-02-15T14:42:56;14.40;;;10.30;;
11422;SDS011;5768;51.476;7.210;2023-02-15T14:48:08;12.77;;;9.05;;
11422;SDS011;5768;51.476;7.210;2023-02-15T14:53:34;16.52;;;9.13;;
11422;SDS011;5768;51.476;7.210;2023-02-15T14:58:41;11.65;;;9.02;;
11422;SDS011;5768;51.476;7.210;2023-02-15T15:04:00;14.98;;;9.50;;
11422;SDS011;5768;51.476;7.210;2023-02-15T15:09:12;12.75;;;9.13;;
11422;SDS011;5768;51.476;7.210;2023-02-15T15:14:40;14.02;;;10.43;;
11422;SDS011;5768;51.476;7.210;2023-02-15T15:30:53;14.07;;;10.32;;
11422;SDS011;5768;51.476;7.210;2023-02-15T15:36:01;13.93;;;10.40;;
11422;SDS011;5768;51.476;7.210;2023-02-15T15:41:48;14.38;;;10.27;;
11422;SDS011;5768;51.476;7.210;2023-02-15T15:47:12;17.00;;;10.38;;
11422;SDS011;5768;51.476;7.210;2023-02-15T15:52:48;15.55;;;10.13;;
11422;SDS011;5768;51.476;7.210;2023-02-15T15:57:53;13.95;;;10.13;;
11422;SDS011;5768;51.476;7.210;2023-02-15T16:03:01;18.67;;;10.40;;
11422;SDS011;5768;51.476;7.210;2023-02-15T16:08:04;16.88;;;10.43;;
11422;SDS011;5768;51.476;7.210;2023-02-15T16:13:11;18.80;;;11.23;;
11422;SDS011;5768;51.476;7.210;2023-02-15T16:18:18;20.42;;;10.65;;
11422;SDS011;5768;51.476;7.210;2023-02-15T16:23:33;17.70;;;9.77;;
11422;SDS011;5768;51.476;7.210;2023-02-15T16:29:12;20.90;;;10.43;;
11422;SDS011;5768;51.476;7.210;2023-02-15T16:34:18;13.73;;;10.45;;
11422;SDS011;5768;51.476;7.210;2023-02-15T16:39:20;18.25;;;10.73;;
11422;SDS011;5768;51.476;7.210;2023-02-15T16:44:23;14.57;;;9.65;;
11422;SDS011;5768;51.476;7.210;2023-02-15T16:49:27;16.63;;;11.13;;
11422;SDS011;5768;51.476;7.210;2023-02-15T16:54:34;17.45;;;10.80;;
11422;SDS011;5768;51.476;7.210;2023-02-15T16:59:37;18.80;;;11.93;;
11422;SDS011;5768;51.476;7.210;2023-02-15T17:04:52;16.30;;;11.23;;
11422;SDS011;5768;51.476;7.210;2023-02-15T17:10:39;25.45;;;16.95;;
11422;SDS011;5768;51.476;7.210;2023-02-15T17:16:01;19.23;;;13.38;;
11422;SDS011;5768;51.476;7.210;2023-02-15T17:21:30;20.73;;;13.48;;
11422;SDS011;5768;51.476;7.210;2023-02-15T17:26:39;21.33;;;15.18;;
11422;SDS011;5768;51.476;7.210;2023-02-15T17:31:42;20.08;;;13.20;;
11422;SDS011;5768;51.476;7.210;2023-02-15T17:36:59;20.35;;;12.80;;
11422;SDS011;5768;51.476;7.210;2023-02-15T17:42:02;17.45;;;12.98;;
11422;SDS011;5768;51.476;7.210;2023-02-15T17:47:05;15.52;;;11.73;;
11422;SDS011;5768;51.476;7.210;2023-02-15T17:52:10;14.93;;;11.63;;
11422;SDS011;5768;51.476;7.210;2023-02-15T17:57:20;12.70;;;10.20;;
11422;SDS011;5768;51.476;7.210;2023-02-15T18:02:23;13.18;;;10.30;;
11422;SDS011;5768;51.476;7.210;2023-02-15T18:07:44;12.32;;;10.45;;
11422;SDS011;5768;51.476;7.210;2023-02-15T18:13:04;14.50;;;11.27;;
11422;SDS011;5768;51.476;7.210;2023-02-15T18:18:07;15.20;;;11.15;;
11422;SDS011;5768;51.476;7.210;2023-02-15T18:23:15;14.10;;;10.93;;
11422;SDS011;5768;51.476;7.210;2023-02-15T18:28:17;14.10;;;11.07;;
11422;SDS011;5768;51.476;7.210;2023-02-15T18:33:23;14.73;;;11.27;;
11422;SDS011;5768;51.476;7.210;2023-02-15T18:38:36;14.20;;;11.60;;
11422;SDS011;5768;51.476;7.210;2023-02-15T18:43:41;17.83;;;12.68;;
11422;SDS011;5768;51.476;7.210;2023-02-15T18:48:46;16.73;;;12.40;;
11422;SDS011;5768;51.476;7.210;2023-02-15T18:53:50;16.55;;;12.93;;
11422;SDS011;5768;51.476;7.210;2023-02-15T18:58:56;16.50;;;12.77;;
11422;SDS011;5768;51.476;7.210;2023-02-15T19:03:58;17.60;;;12.43;;
11422;SDS011;5768;51.476;7.210;2023-02-15T19:09:02;15.07;;;12.27;;
11422;SDS011;5768;51.476;7.210;2023-02-15T19:14:04;15.70;;;12.30;;
11422;SDS011;5768;51.476;7.210;2023-02-15T19:19:22;19.10;;;12.27;;
11422;SDS011;5768;51.476;7.210;2023-02-15T19:24:35;15.27;;;12.83;;
11422;SDS011;5768;51.476;7.210;2023-02-15T19:29:43;18.73;;;13.37;;
11422;SDS011;5768;51.476;7.210;2023-02-15T19:34:45;16.73;;;13.10;;
11422;SDS011;5768;51.476;7.210;2023-02-15T19:39:49;15.73;;;13.03;;
11422;SDS011;5768;51.476;7.210;2023-02-15T19:44:52;16.30;;;12.77;;
11422;SDS011;5768;51.476;7.210;2023-02-15T19:49:54;15.37;;;12.57;;
11422;SDS011;5768;51.476;7.210;2023-02-15T19:55:04;14.10;;;12.33;;
11422;SDS011;5768;51.476;7.210;2023-02-15T20:00:08;16.97;;;13.17;;
11422;SDS011;5768;51.476;7.210;2023-02-15T20:05:18;15.17;;;12.63;;
11422;SDS011;5768;51.476;7.210;2023-02-15T20:10:25;14.70;;;12.37;;
11422;SDS011;5768;51.476;7.210;2023-02-15T20:15:30;15.13;;;12.30;;
11422;SDS011;5768;51.476;7.210;2023-02-15T20:20:37;15.03;;;12.77;;
11422;SDS011;5768;51.476;7.210;2023-02-15T20:25:44;15.27;;;13.07;;
11422;SDS011;5768;51.476;7.210;2023-02-15T20:30:46;16.37;;;13.30;;
11422;SDS011;5768;51.476;7.210;2023-02-15T20:35:50;17.43;;;13.73;;
11422;SDS011;5768;51.476;7.210;2023-02-15T20:40:54;16.13;;;13.00;;
11422;SDS011;5768;51.476;7.210;2023-02-15T20:46:16;15.50;;;12.53;;
11422;SDS011;5768;51.476;7.210;2023-02-15T20:51:19;15.50;;;12.53;;
11422;SDS011;5768;51.476;7.210;2023-02-15T20:56:23;16.90;;;13.83;;
11422;SDS011;5768;51.476;7.210;2023-02-15T21:01:25;17.33;;;13.77;;
11422;SDS011;5768;51.476;7.210;2023-02-15T21:06:28;16.73;;;13.57;;
11422;SDS011;5768;51.476;7.210;2023-02-15T21:11:31;15.80;;;13.17;;
11422;SDS011;5768;51.476;7.210;2023-02-15T21:16:33;15.67;;;12.93;;
11422;SDS011;5768;51.476;7.210;2023-02-15T21:21:35;16.30;;;14.00;;
11422;SDS011;5768;51.476;7.210;2023-02-15T21:26:39;16.77;;;13.87;;
11422;SDS011;5768;51.476;7.210;2023-02-15T21:31:45;16.50;;;13.67;;
11422;SDS011;5768;51.476;7.210;2023-02-15T21:36:47;20.00;;;13.40;;
11422;SDS011;5768;51.476;7.210;2023-02-15T21:41:52;16.73;;;13.37;;
11422;SDS011;5768;51.476;7.210;2023-02-15T21:47:16;16.43;;;13.67;;
11422;SDS011;5768;51.476;7.210;2023-02-15T21:52:38;16.53;;;13.57;;
11422;SDS011;5768;51.476;7.210;2023-02-15T21:57:42;16.07;;;13.87;;
11422;SDS011;5768;51.476;7.210;2023-02-15T22:02:45;15.37;;;13.67;;
11422;SDS011;5768;51.476;7.210;2023-02-15T22:07:49;18.17;;;14.67;;
11422;SDS011;5768;51.476;7.210;2023-02-15T22:12:53;16.83;;;14.50;;
11422;SDS011;5768;51.476;7.210;2023-02-15T22:17:55;15.83;;;13.53;;
11422;SDS011;5768;51.476;7.210;2023-02-15T22:22:58;17.33;;;14.73;;
11422;SDS011;5768;51.476;7.210;2023-02-15T22:28:01;16.23;;;13.40;;
11422;SDS011;5768;51.476;7.210;2023-02-15T22:33:04;16.10;;;14.27;;
11422;SDS011;5768;51.476;7.210;2023-02-15T22:38:15;16.47;;;14.43;;
11422;SDS011;5768;51.476;7.210;2023-02-15T22:43:24;19.07;;;14.90;;
11422;SDS011;5768;51.476;7.210;2023-02-15T22:48:36;19.00;;;15.33;;
11422;SDS011;5768;51.476;7.210;2023-02-15T22:53:38;18.13;;;15.70;;
11422;SDS011;5768;51.476;7.210;2023-02-15T22:58:41;20.10;;;14.67;;
11422;SDS011;5768;51.476;7.210;2023-02-15T23:03:44;19.83;;;15.87;;
11422;SDS011;5768;51.476;7.210;2023-02-15T23:08:46;18.13;;;15.20;;
11422;SDS011;5768;51.476;7.210;2023-02-15T23:13:49;20.63;;;16.03;;
11422;SDS011;5768;51.476;7.210;2023-02-15T23:18:51;18.20;;;15.67;;
11422;SDS011;5768;51.476;7.210;2023-02-15T23:23:54;20.27;;;15.53;;
11422;SDS011;5768;51.476;7.210;2023-02-15T23:29:04;19.20;;;15.20;;
11422;SDS011;5768;51.476;7.210;2023-02-15T23:34:25;21.47;;;16.00;;
11422;SDS011;5768;51.476;7.210;2023-02-15T23:39:29;19.43;;;15.80;;
11422;SDS011;5768;51.476;7.210;2023-02-15T23:44:50;21.07;;;16.43;;
11422;SDS011;5768;51.476;7.210;2023-02-15T23:49:53;19.33;;;15.50;;
11422;SDS011;5768;51.476;7.210;2023-02-15T23:54:55;19.63;;;15.93;;
11422;SDS011;5768;51.476;7.210;2023-02-15T23:59:58;17.87;;;15.97;;
